MFF168 LSZS-LHBP
Flight info
| Callsign | MFF168 |
|---|---|
| Flight time | N/A |
| Altitude | 34000 |
| Route | RONAG DCT SUXAN DCT DETSA/N0453F350 DCT SASAL DCT VAJDI |
| Aircraft | B738/M-SDE2E3FGHIRWXY/LB1 |
Departure
| Time | 2026-05-04 08:31 |
|---|---|
| Airport | Engadin Airport (LSZS) |
Arrival
| Time | N/A |
|---|---|
| Airport | Budapest Liszt Ferenc International Airport (LHBP) |
| Time | Latitude | Longitude | Altitude | Speed | Heading |
|---|---|---|---|---|---|
| 2026-05-04 08:00 | 46.53049 | 9.87989 | 5602 ft | 0 kts | 300° |
| 2026-05-04 08:02 | 46.53048 | 9.87989 | 5602 ft | 0 kts | 300° |
| 2026-05-04 08:08 | 46.53048 | 9.87990 | 5602 ft | 0 kts | 300° |
| 2026-05-04 08:19 | 46.53048 | 9.87991 | 5602 ft | 0 kts | 300° |
| 2026-05-04 08:24 | 46.52968 | 9.88035 | 5604 ft | 13 kts | 121° |
| 2026-05-04 08:24 | 46.52950 | 9.88136 | 5602 ft | 10 kts | 59° |
| 2026-05-04 08:24 | 46.53006 | 9.88195 | 5603 ft | 10 kts | 31° |
| 2026-05-04 08:24 | 46.53065 | 9.88243 | 5607 ft | 10 kts | 30° |
| 2026-05-04 08:25 | 46.53121 | 9.88290 | 5608 ft | 9 kts | 30° |
| 2026-05-04 08:25 | 46.53177 | 9.88335 | 5608 ft | 9 kts | 28° |
| 2026-05-04 08:25 | 46.53214 | 9.88364 | 5609 ft | 9 kts | 27° |
| 2026-05-04 08:26 | 46.53233 | 9.88378 | 5607 ft | 9 kts | 27° |
| 2026-05-04 08:27 | 46.53792 | 9.88835 | 5602 ft | 23 kts | 30° |
| 2026-05-04 08:28 | 46.53925 | 9.88945 | 5606 ft | 21 kts | 30° |
| 2026-05-04 08:28 | 46.54035 | 9.89032 | 5608 ft | 17 kts | 28° |
| 2026-05-04 08:28 | 46.54096 | 9.89054 | 5603 ft | 8 kts | 346° |
| 2026-05-04 08:28 | 46.54126 | 9.88993 | 5609 ft | 7 kts | 272° |
| 2026-05-04 08:29 | 46.54103 | 9.88950 | 5606 ft | 0 kts | 215° |
| 2026-05-04 08:29 | 46.54063 | 9.88913 | 5606 ft | 22 kts | 210° |
| 2026-05-04 08:31 | 46.48118 | 9.90781 | 9147 ft | 180 kts | 138° |
| 2026-05-04 08:33 | 46.46156 | 10.03177 | 12512 ft | 271 kts | 71° |
| 2026-05-04 08:33 | 46.46862 | 10.05799 | 12799 ft | 287 kts | 73° |
| 2026-05-04 08:35 | 46.51428 | 10.25663 | 15418 ft | 362 kts | 76° |
| 2026-05-04 08:35 | 46.52206 | 10.29259 | 15561 ft | 384 kts | 75° |
| 2026-05-04 08:35 | 46.53021 | 10.33028 | 15948 ft | 397 kts | 75° |
| 2026-05-04 08:35 | 46.53855 | 10.36882 | 16609 ft | 402 kts | 75° |
| 2026-05-04 08:37 | 46.58144 | 10.60944 | 20180 ft | 425 kts | 81° |
| 2026-05-04 08:37 | 46.58709 | 10.65193 | 20710 ft | 430 kts | 80° |
| 2026-05-04 08:37 | 46.59281 | 10.69454 | 21407 ft | 429 kts | 79° |
| 2026-05-04 08:38 | 46.59860 | 10.73715 | 21966 ft | 433 kts | 79° |
| 2026-05-04 08:38 | 46.60451 | 10.78030 | 22493 ft | 436 kts | 79° |
| 2026-05-04 08:38 | 46.61050 | 10.82370 | 22990 ft | 441 kts | 79° |
| 2026-05-04 08:40 | 46.65355 | 11.13760 | 26141 ft | 460 kts | 79° |
| 2026-05-04 08:40 | 46.65976 | 11.18350 | 26491 ft | 464 kts | 79° |
| 2026-05-04 08:40 | 46.66599 | 11.22963 | 26909 ft | 466 kts | 79° |
| 2026-05-04 08:41 | 46.67223 | 11.27603 | 27259 ft | 468 kts | 79° |
| 2026-05-04 08:41 | 46.67848 | 11.32266 | 27630 ft | 471 kts | 79° |
| 2026-05-04 08:41 | 46.68476 | 11.36960 | 27975 ft | 474 kts | 79° |
| 2026-05-04 08:41 | 46.69106 | 11.41694 | 28334 ft | 477 kts | 79° |
| 2026-05-04 08:42 | 46.69736 | 11.46440 | 28701 ft | 479 kts | 79° |
| 2026-05-04 08:42 | 46.70367 | 11.51208 | 29057 ft | 481 kts | 79° |
| 2026-05-04 08:42 | 46.71001 | 11.56011 | 29388 ft | 484 kts | 79° |
| 2026-05-04 08:42 | 46.71634 | 11.60832 | 29716 ft | 485 kts | 79° |
| 2026-05-04 08:43 | 46.72265 | 11.65648 | 30254 ft | 482 kts | 79° |
| 2026-05-04 08:43 | 46.72891 | 11.70443 | 30677 ft | 481 kts | 79° |
| 2026-05-04 08:43 | 46.73509 | 11.75166 | 31005 ft | 482 kts | 79° |
| 2026-05-04 08:43 | 46.74146 | 11.80016 | 31302 ft | 480 kts | 78° |
| 2026-05-04 08:44 | 46.74751 | 11.84657 | 31456 ft | 485 kts | 78° |
| 2026-05-04 08:44 | 46.75377 | 11.89503 | 31670 ft | 488 kts | 79° |
| 2026-05-04 08:46 | 46.79612 | 12.23053 | 34511 ft | 476 kts | 79° |
| 2026-05-04 08:46 | 46.80204 | 12.27795 | 34853 ft | 475 kts | 79° |
| 2026-05-04 08:46 | 46.80814 | 12.32523 | 35196 ft | 473 kts | 79° |
| 2026-05-04 08:47 | 46.82094 | 12.42074 | 35165 ft | 477 kts | 78° |
| 2026-05-04 08:47 | 46.83364 | 12.51524 | 35143 ft | 471 kts | 78° |
| 2026-05-04 08:48 | 46.84598 | 12.60833 | 35122 ft | 469 kts | 79° |
| 2026-05-04 08:48 | 46.85825 | 12.70191 | 35106 ft | 469 kts | 79° |
| 2026-05-04 08:49 | 46.87043 | 12.79558 | 35109 ft | 469 kts | 79° |
| 2026-05-04 08:50 | 46.91255 | 13.12444 | 35110 ft | 470 kts | 79° |
| 2026-05-04 08:51 | 46.92442 | 13.21854 | 35106 ft | 471 kts | 79° |
| 2026-05-04 08:51 | 46.93615 | 13.31222 | 35113 ft | 471 kts | 79° |
| 2026-05-04 08:52 | 46.94789 | 13.40658 | 35102 ft | 471 kts | 79° |
| 2026-05-04 08:52 | 46.95955 | 13.50100 | 35105 ft | 472 kts | 79° |
| 2026-05-04 08:54 | 47.00547 | 13.87956 | 35116 ft | 471 kts | 80° |
| 2026-05-04 08:55 | 47.01672 | 13.97397 | 35109 ft | 471 kts | 80° |
| 2026-05-04 08:55 | 47.02779 | 14.06763 | 35122 ft | 471 kts | 80° |
| 2026-05-04 09:01 | 47.13976 | 15.05604 | 35097 ft | 465 kts | 80° |
| 2026-05-04 09:01 | 47.14991 | 15.14973 | 35093 ft | 464 kts | 80° |
| 2026-05-04 09:02 | 47.15982 | 15.24195 | 35097 ft | 464 kts | 81° |
| 2026-05-04 09:02 | 47.16972 | 15.33482 | 35091 ft | 464 kts | 81° |
| 2026-05-04 09:03 | 47.17954 | 15.42767 | 35098 ft | 464 kts | 81° |
| 2026-05-04 09:03 | 47.18937 | 15.52138 | 35094 ft | 464 kts | 80° |
| 2026-05-04 09:04 | 47.19913 | 15.61518 | 35087 ft | 463 kts | 81° |
| 2026-05-04 09:04 | 47.20879 | 15.70878 | 35087 ft | 463 kts | 81° |
| 2026-05-04 09:05 | 47.21831 | 15.80176 | 35083 ft | 462 kts | 81° |
| 2026-05-04 09:05 | 47.22757 | 15.89290 | 35091 ft | 462 kts | 81° |
| 2026-05-04 09:06 | 47.23697 | 15.98633 | 35091 ft | 461 kts | 80° |
| 2026-05-04 09:08 | 47.27335 | 16.35522 | 35090 ft | 459 kts | 81° |
| 2026-05-04 09:08 | 47.28246 | 16.44956 | 35089 ft | 459 kts | 81° |
| 2026-05-04 09:09 | 47.28964 | 16.54106 | 35085 ft | 460 kts | 84° |
| 2026-05-04 09:09 | 47.29451 | 16.63250 | 35096 ft | 458 kts | 84° |
| 2026-05-04 09:10 | 47.29927 | 16.72540 | 35096 ft | 464 kts | 84° |
| 2026-05-04 09:10 | 47.30438 | 16.82068 | 35105 ft | 468 kts | 84° |
| 2026-05-04 09:11 | 47.30944 | 16.91371 | 35072 ft | 461 kts | 84° |
| 2026-05-04 09:11 | 47.31440 | 17.00580 | 35092 ft | 458 kts | 84° |
| 2026-05-04 09:11 | 47.31700 | 17.05432 | 34719 ft | 464 kts | 84° |
| 2026-05-04 09:12 | 47.31935 | 17.09865 | 34185 ft | 464 kts | 84° |
| 2026-05-04 09:12 | 47.32183 | 17.14608 | 33445 ft | 464 kts | 84° |
| 2026-05-04 09:14 | 47.33838 | 17.47266 | 28361 ft | 459 kts | 85° |
| 2026-05-04 09:14 | 47.34056 | 17.51780 | 27869 ft | 456 kts | 84° |
| 2026-05-04 09:14 | 47.34274 | 17.56331 | 27450 ft | 446 kts | 84° |
| 2026-05-04 09:14 | 47.34492 | 17.60849 | 26957 ft | 439 kts | 84° |
| 2026-05-04 09:15 | 47.34704 | 17.65235 | 26438 ft | 433 kts | 84° |
| 2026-05-04 09:15 | 47.34916 | 17.69647 | 25892 ft | 429 kts | 84° |
| 2026-05-04 09:15 | 47.35122 | 17.74009 | 25353 ft | 425 kts | 84° |
| 2026-05-04 09:15 | 47.35322 | 17.78268 | 24833 ft | 421 kts | 84° |
| 2026-05-04 09:17 | 47.36792 | 18.10811 | 20516 ft | 394 kts | 85° |
| 2026-05-04 09:18 | 47.36967 | 18.14819 | 20002 ft | 390 kts | 85° |
| 2026-05-04 09:18 | 47.37081 | 18.17447 | 19675 ft | 387 kts | 85° |
| 2026-05-04 09:18 | 47.37274 | 18.21952 | 19096 ft | 383 kts | 85° |
| 2026-05-04 09:18 | 47.37315 | 18.25594 | 18620 ft | 381 kts | 93° |
| 2026-05-04 09:19 | 47.36812 | 18.29418 | 18111 ft | 380 kts | 105° |
| 2026-05-04 09:19 | 47.35829 | 18.33004 | 17646 ft | 377 kts | 116° |
| 2026-05-04 09:19 | 47.34499 | 18.36312 | 17160 ft | 373 kts | 119° |
| 2026-05-04 09:19 | 47.33242 | 18.39318 | 16675 ft | 371 kts | 120° |
| 2026-05-04 09:20 | 47.32132 | 18.41971 | 16264 ft | 368 kts | 120° |
| 2026-05-04 09:20 | 47.30748 | 18.45297 | 15751 ft | 365 kts | 119° |
| 2026-05-04 09:20 | 47.29634 | 18.47989 | 15337 ft | 363 kts | 119° |
| 2026-05-04 09:20 | 47.28332 | 18.51152 | 14844 ft | 361 kts | 119° |
| 2026-05-04 09:21 | 47.27038 | 18.54303 | 14382 ft | 358 kts | 119° |
| 2026-05-04 09:21 | 47.26186 | 18.56378 | 14061 ft | 357 kts | 119° |
| 2026-05-04 09:21 | 47.24905 | 18.59496 | 13539 ft | 355 kts | 119° |
| 2026-05-04 09:21 | 47.23783 | 18.62227 | 13077 ft | 353 kts | 119° |
| 2026-05-04 09:22 | 47.22517 | 18.65303 | 12586 ft | 350 kts | 119° |
| 2026-05-04 09:22 | 47.21277 | 18.68313 | 12109 ft | 348 kts | 120° |
| 2026-05-04 09:22 | 47.20543 | 18.70268 | 11803 ft | 345 kts | 112° |
| 2026-05-04 09:22 | 47.20050 | 18.73671 | 11313 ft | 340 kts | 89° |
| 2026-05-04 09:23 | 47.20413 | 18.77059 | 11040 ft | 331 kts | 72° |
| 2026-05-04 09:23 | 47.21401 | 18.80054 | 10854 ft | 321 kts | 58° |
| 2026-05-04 09:23 | 47.22361 | 18.82260 | 10622 ft | 317 kts | 57° |
| 2026-05-04 09:23 | 47.23452 | 18.84729 | 10489 ft | 308 kts | 57° |
| 2026-05-04 09:25 | 47.29097 | 19.00116 | 9250 ft | 274 kts | 99° |
| 2026-05-04 09:25 | 47.28283 | 19.02587 | 9089 ft | 269 kts | 132° |
| 2026-05-04 09:26 | 47.26714 | 19.04052 | 8850 ft | 273 kts | 163° |
| 2026-05-04 09:26 | 47.25016 | 19.04502 | 8663 ft | 275 kts | 170° |
| 2026-05-04 09:26 | 47.23103 | 19.04600 | 8377 ft | 280 kts | 191° |
| 2026-05-04 09:26 | 47.21377 | 19.03277 | 8130 ft | 286 kts | 224° |
| 2026-05-04 09:27 | 47.20382 | 19.01104 | 7962 ft | 296 kts | 247° |
| 2026-05-04 09:27 | 47.19981 | 18.98141 | 7694 ft | 298 kts | 273° |
| 2026-05-04 09:27 | 47.20511 | 18.95259 | 7442 ft | 291 kts | 301° |
| 2026-05-04 09:27 | 47.21841 | 18.93158 | 7230 ft | 276 kts | 329° |
| 2026-05-04 09:28 | 47.23588 | 18.92214 | 6970 ft | 263 kts | 355° |
| 2026-05-04 09:28 | 47.25367 | 18.92425 | 6704 ft | 255 kts | 18° |
| 2026-05-04 09:28 | 47.26944 | 18.93556 | 6458 ft | 250 kts | 38° |
| 2026-05-04 09:28 | 47.28039 | 18.95108 | 6498 ft | 245 kts | 54° |
| 2026-05-04 09:29 | 47.28955 | 18.97202 | 6527 ft | 242 kts | 60° |
| 2026-05-04 09:29 | 47.29810 | 18.99356 | 6528 ft | 248 kts | 60° |
| 2026-05-04 09:29 | 47.30700 | 19.01568 | 6523 ft | 254 kts | 55° |
| 2026-05-04 09:29 | 47.31934 | 19.03399 | 6532 ft | 253 kts | 41° |
| 2026-05-04 09:30 | 47.33269 | 19.05091 | 6519 ft | 253 kts | 43° |
| 2026-05-04 09:30 | 47.34582 | 19.06816 | 6516 ft | 253 kts | 43° |
| 2026-05-04 09:30 | 47.35890 | 19.08555 | 6510 ft | 253 kts | 43° |
| 2026-05-04 09:30 | 47.37228 | 19.10230 | 6498 ft | 253 kts | 33° |
| 2026-05-04 09:31 | 47.38286 | 19.10868 | 6478 ft | 255 kts | 12° |
| 2026-05-04 09:31 | 47.40060 | 19.10710 | 6265 ft | 262 kts | 340° |
| 2026-05-04 09:31 | 47.41586 | 19.09259 | 6022 ft | 262 kts | 316° |
| 2026-05-04 09:31 | 47.42828 | 19.07308 | 5783 ft | 260 kts | 311° |
| 2026-05-04 09:32 | 47.44017 | 19.05310 | 5529 ft | 259 kts | 311° |
| 2026-05-04 09:32 | 47.45100 | 19.03505 | 5303 ft | 257 kts | 311° |
| 2026-05-04 09:34 | 47.52981 | 18.90718 | 4950 ft | 209 kts | 325° |
| 2026-05-04 09:34 | 47.54027 | 18.90134 | 4968 ft | 193 kts | 359° |
| 2026-05-04 09:34 | 47.55208 | 18.90369 | 4878 ft | 195 kts | 23° |
| 2026-05-04 09:34 | 47.55871 | 18.90877 | 4730 ft | 194 kts | 37° |
| 2026-05-04 09:35 | 47.56792 | 18.92018 | 4531 ft | 195 kts | 44° |
| 2026-05-04 09:35 | 47.57792 | 18.93368 | 4373 ft | 193 kts | 45° |
| 2026-05-04 09:35 | 47.58746 | 18.94674 | 4209 ft | 194 kts | 48° |
| 2026-05-04 09:35 | 47.59357 | 18.96375 | 3994 ft | 182 kts | 87° |
| 2026-05-04 09:37 | 47.54870 | 19.05917 | 3351 ft | 156 kts | 136° |
| 2026-05-04 09:37 | 47.54152 | 19.07116 | 3145 ft | 161 kts | 137° |
| 2026-05-04 09:38 | 47.53399 | 19.08303 | 2945 ft | 160 kts | 137° |
| 2026-05-04 09:38 | 47.52898 | 19.09102 | 2814 ft | 160 kts | 138° |
| 2026-05-04 09:38 | 47.52233 | 19.10181 | 2633 ft | 159 kts | 135° |
| 2026-05-04 09:38 | 47.51489 | 19.11395 | 2407 ft | 159 kts | 137° |
| 2026-05-04 09:39 | 47.50896 | 19.12339 | 2224 ft | 158 kts | 136° |
| 2026-05-04 09:39 | 47.50159 | 19.13520 | 2044 ft | 155 kts | 136° |
| 2026-05-04 09:39 | 47.49480 | 19.14619 | 1824 ft | 153 kts | 135° |